sensor_id;sensor_type;location;lat;lon;timestamp;pressure;altitude;pressure_sealevel;temperature
70533;BMP180;58088;51.186;17.130;2022-07-10T00:01:05;100393.60;;;16.60
70533;BMP180;58088;51.186;17.130;2022-07-10T00:03:31;100400.40;;;16.60
70533;BMP180;58088;51.186;17.130;2022-07-10T00:05:58;100394.80;;;16.50
70533;BMP180;58088;51.186;17.130;2022-07-10T00:08:24;100397.40;;;16.50
70533;BMP180;58088;51.186;17.130;2022-07-10T00:10:51;100395.00;;;16.50
70533;BMP180;58088;51.186;17.130;2022-07-10T00:13:17;100394.20;;;16.50
70533;BMP180;58088;51.186;17.130;2022-07-10T00:15:43;100401.80;;;16.50
70533;BMP180;58088;51.186;17.130;2022-07-10T00:18:09;100396.80;;;16.44
70533;BMP180;58088;51.186;17.130;2022-07-10T00:20:36;100392.60;;;16.40
70533;BMP180;58088;51.186;17.130;2022-07-10T00:23:02;100394.20;;;16.40
70533;BMP180;58088;51.186;17.130;2022-07-10T00:25:29;100391.20;;;16.30
70533;BMP180;58088;51.186;17.130;2022-07-10T00:27:56;100390.60;;;16.30
70533;BMP180;58088;51.186;17.130;2022-07-10T00:30:22;100393.80;;;16.30
70533;BMP180;58088;51.186;17.130;2022-07-10T00:32:48;100389.60;;;16.20
70533;BMP180;58088;51.186;17.130;2022-07-10T00:35:14;100388.20;;;16.20
70533;BMP180;58088;51.186;17.130;2022-07-10T00:37:41;100384.40;;;16.14
70533;BMP180;58088;51.186;17.130;2022-07-10T00:40:07;100381.80;;;16.10
70533;BMP180;58088;51.186;17.130;2022-07-10T00:42:34;100381.40;;;16.10
70533;BMP180;58088;51.186;17.130;2022-07-10T00:45:00;100386.00;;;16.00
70533;BMP180;58088;51.186;17.130;2022-07-10T00:47:26;100391.20;;;16.00
70533;BMP180;58088;51.186;17.130;2022-07-10T00:49:52;100388.80;;;15.90
70533;BMP180;58088;51.186;17.130;2022-07-10T00:52:19;100391.20;;;15.90
70533;BMP180;58088;51.186;17.130;2022-07-10T00:54:48;100383.80;;;15.80
70533;BMP180;58088;51.186;17.130;2022-07-10T00:57:19;100383.60;;;15.80
70533;BMP180;58088;51.186;17.130;2022-07-10T00:59:48;100375.40;;;15.80
70533;BMP180;58088;51.186;17.130;2022-07-10T01:02:25;100378.60;;;15.70
70533;BMP180;58088;51.186;17.130;2022-07-10T01:05:11;100373.40;;;15.70
70533;BMP180;58088;51.186;17.130;2022-07-10T01:07:37;100374.60;;;15.70
70533;BMP180;58088;51.186;17.130;2022-07-10T01:10:03;100375.40;;;15.70
70533;BMP180;58088;51.186;17.130;2022-07-10T01:12:30;100374.80;;;15.70
70533;BMP180;58088;51.186;17.130;2022-07-10T01:14:59;100374.20;;;15.68
70533;BMP180;58088;51.186;17.130;2022-07-10T01:17:26;100374.00;;;15.60
70533;BMP180;58088;51.186;17.130;2022-07-10T01:19:56;100378.40;;;15.60
70533;BMP180;58088;51.186;17.130;2022-07-10T01:22:24;100375.60;;;15.60
70533;BMP180;58088;51.186;17.130;2022-07-10T01:24:50;100381.80;;;15.50
70533;BMP180;58088;51.186;17.130;2022-07-10T01:27:16;100380.80;;;15.50
70533;BMP180;58088;51.186;17.130;2022-07-10T01:29:46;100381.20;;;15.50
70533;BMP180;58088;51.186;17.130;2022-07-10T01:32:12;100381.60;;;15.48
70533;BMP180;58088;51.186;17.130;2022-07-10T01:34:38;100384.60;;;15.40
70533;BMP180;58088;51.186;17.130;2022-07-10T01:37:05;100379.80;;;15.40
70533;BMP180;58088;51.186;17.130;2022-07-10T01:39:31;100376.80;;;15.40
70533;BMP180;58088;51.186;17.130;2022-07-10T01:41:57;100378.20;;;15.30
70533;BMP180;58088;51.186;17.130;2022-07-10T01:44:23;100378.80;;;15.30
70533;BMP180;58088;51.186;17.130;2022-07-10T01:46:50;100372.60;;;15.30
70533;BMP180;58088;51.186;17.130;2022-07-10T01:49:16;100372.00;;;15.20
70533;BMP180;58088;51.186;17.130;2022-07-10T01:51:42;100373.80;;;15.20
70533;BMP180;58088;51.186;17.130;2022-07-10T01:54:09;100377.60;;;15.10
70533;BMP180;58088;51.186;17.130;2022-07-10T01:56:35;100374.60;;;15.10
70533;BMP180;58088;51.186;17.130;2022-07-10T01:59:01;100370.60;;;15.10
70533;BMP180;58088;51.186;17.130;2022-07-10T02:01:30;100367.80;;;15.00
70533;BMP180;58088;51.186;17.130;2022-07-10T02:03:56;100372.80;;;15.00
70533;BMP180;58088;51.186;17.130;2022-07-10T02:06:41;100374.60;;;15.00
70533;BMP180;58088;51.186;17.130;2022-07-10T02:09:07;100379.60;;;14.90
70533;BMP180;58088;51.186;17.130;2022-07-10T02:11:34;100381.00;;;14.90
70533;BMP180;58088;51.186;17.130;2022-07-10T02:14:00;100383.60;;;14.90
70533;BMP180;58088;51.186;17.130;2022-07-10T02:16:26;100377.00;;;14.90
70533;BMP180;58088;51.186;17.130;2022-07-10T02:18:52;100379.20;;;14.90
70533;BMP180;58088;51.186;17.130;2022-07-10T02:21:18;100381.20;;;14.90
70533;BMP180;58088;51.186;17.130;2022-07-10T02:23:44;100382.00;;;14.90
70533;BMP180;58088;51.186;17.130;2022-07-10T02:26:11;100381.00;;;14.90
70533;BMP180;58088;51.186;17.130;2022-07-10T02:28:37;100379.80;;;14.90
70533;BMP180;58088;51.186;17.130;2022-07-10T02:31:03;100373.40;;;14.90
70533;BMP180;58088;51.186;17.130;2022-07-10T02:33:29;100383.20;;;14.98
70533;BMP180;58088;51.186;17.130;2022-07-10T02:35:55;100377.20;;;15.00
70533;BMP180;58088;51.186;17.130;2022-07-10T02:38:21;100378.20;;;15.00
70533;BMP180;58088;51.186;17.130;2022-07-10T02:40:48;100375.20;;;15.00
70533;BMP180;58088;51.186;17.130;2022-07-10T02:43:15;100379.60;;;15.00
70533;BMP180;58088;51.186;17.130;2022-07-10T02:45:41;100376.80;;;15.00
70533;BMP180;58088;51.186;17.130;2022-07-10T02:48:07;100382.20;;;15.00
70533;BMP180;58088;51.186;17.130;2022-07-10T02:50:33;100383.40;;;15.00
70533;BMP180;58088;51.186;17.130;2022-07-10T02:52:59;100383.00;;;15.00
70533;BMP180;58088;51.186;17.130;2022-07-10T02:55:25;100386.60;;;15.00
70533;BMP180;58088;51.186;17.130;2022-07-10T02:57:52;100383.20;;;15.00
70533;BMP180;58088;51.186;17.130;2022-07-10T03:00:18;100382.40;;;15.00
70533;BMP180;58088;51.186;17.130;2022-07-10T03:02:44;100382.20;;;15.10
70533;BMP180;58088;51.186;17.130;2022-07-10T03:05:10;100382.40;;;15.10
70533;BMP180;58088;51.186;17.130;2022-07-10T03:07:36;100383.40;;;15.10
70533;BMP180;58088;51.186;17.130;2022-07-10T03:10:03;100390.00;;;15.10
70533;BMP180;58088;51.186;17.130;2022-07-10T03:12:29;100385.80;;;15.20
70533;BMP180;58088;51.186;17.130;2022-07-10T03:14:55;100389.20;;;15.20
70533;BMP180;58088;51.186;17.130;2022-07-10T03:17:21;100392.40;;;15.20
70533;BMP180;58088;51.186;17.130;2022-07-10T03:19:48;100388.20;;;15.20
70533;BMP180;58088;51.186;17.130;2022-07-10T03:22:14;100386.60;;;15.30
70533;BMP180;58088;51.186;17.130;2022-07-10T03:24:40;100375.00;;;15.30
70533;BMP180;58088;51.186;17.130;2022-07-10T03:27:08;100384.00;;;15.48
70533;BMP180;58088;51.186;17.130;2022-07-10T03:29:35;100385.80;;;15.62
70533;BMP180;58088;51.186;17.130;2022-07-10T03:32:01;100377.80;;;15.68
70533;BMP180;58088;51.186;17.130;2022-07-10T03:34:27;100375.20;;;15.70
70533;BMP180;58088;51.186;17.130;2022-07-10T03:36:53;100379.40;;;16.00
70533;BMP180;58088;51.186;17.130;2022-07-10T03:39:19;100376.40;;;16.22
70533;BMP180;58088;51.186;17.130;2022-07-10T03:41:46;100379.60;;;16.20
70533;BMP180;58088;51.186;17.130;2022-07-10T03:44:12;100378.00;;;16.20
70533;BMP180;58088;51.186;17.130;2022-07-10T03:46:38;100383.60;;;16.20
70533;BMP180;58088;51.186;17.130;2022-07-10T03:49:05;100378.40;;;16.10
70533;BMP180;58088;51.186;17.130;2022-07-10T03:51:31;100377.80;;;16.24
70533;BMP180;58088;51.186;17.130;2022-07-10T03:53:57;100380.20;;;16.40
70533;BMP180;58088;51.186;17.130;2022-07-10T03:56:23;100380.00;;;16.34
70533;BMP180;58088;51.186;17.130;2022-07-10T03:59:08;100380.80;;;16.30
70533;BMP180;58088;51.186;17.130;2022-07-10T04:01:34;100376.40;;;16.48
70533;BMP180;58088;51.186;17.130;2022-07-10T04:04:00;100381.00;;;16.60
70533;BMP180;58088;51.186;17.130;2022-07-10T04:06:28;100381.80;;;17.04
70533;BMP180;58088;51.186;17.130;2022-07-10T04:08:54;100384.20;;;17.70
70533;BMP180;58088;51.186;17.130;2022-07-10T04:11:20;100385.00;;;18.00
70533;BMP180;58088;51.186;17.130;2022-07-10T04:13:46;100390.20;;;17.90
70533;BMP180;58088;51.186;17.130;2022-07-10T04:16:12;100390.40;;;17.70
70533;BMP180;58088;51.186;17.130;2022-07-10T04:18:39;100388.00;;;17.62
70533;BMP180;58088;51.186;17.130;2022-07-10T04:21:06;100387.00;;;17.50
70533;BMP180;58088;51.186;17.130;2022-07-10T04:23:35;100390.00;;;17.40
70533;BMP180;58088;51.186;17.130;2022-07-10T04:26:03;100393.60;;;17.24
70533;BMP180;58088;51.186;17.130;2022-07-10T04:28:33;100386.00;;;17.20
70533;BMP180;58088;51.186;17.130;2022-07-10T04:31:03;100387.00;;;17.10
70533;BMP180;58088;51.186;17.130;2022-07-10T04:33:32;100377.20;;;17.04
70533;BMP180;58088;51.186;17.130;2022-07-10T04:36:01;100375.60;;;17.10
70533;BMP180;58088;51.186;17.130;2022-07-10T04:38:30;100371.20;;;17.04
70533;BMP180;58088;51.186;17.130;2022-07-10T04:41:00;100378.20;;;17.10
70533;BMP180;58088;51.186;17.130;2022-07-10T04:43:31;100375.00;;;17.00
70533;BMP180;58088;51.186;17.130;2022-07-10T04:45:59;100381.40;;;17.00
70533;BMP180;58088;51.186;17.130;2022-07-10T04:48:25;100382.80;;;17.00
70533;BMP180;58088;51.186;17.130;2022-07-10T04:50:52;100380.20;;;17.00
70533;BMP180;58088;51.186;17.130;2022-07-10T04:53:18;100380.40;;;16.90
70533;BMP180;58088;51.186;17.130;2022-07-10T04:55:44;100379.40;;;16.90
70533;BMP180;58088;51.186;17.130;2022-07-10T04:58:10;100381.80;;;16.88
70533;BMP180;58088;51.186;17.130;2022-07-10T05:00:36;100383.20;;;16.80
70533;BMP180;58088;51.186;17.130;2022-07-10T05:03:02;100383.00;;;16.86
70533;BMP180;58088;51.186;17.130;2022-07-10T05:05:28;100382.60;;;16.90
70533;BMP180;58088;51.186;17.130;2022-07-10T05:07:55;100381.00;;;16.90
70533;BMP180;58088;51.186;17.130;2022-07-10T05:10:21;100381.00;;;16.90
70533;BMP180;58088;51.186;17.130;2022-07-10T05:12:48;100378.80;;;16.90
70533;BMP180;58088;51.186;17.130;2022-07-10T05:15:14;100378.20;;;16.90
70533;BMP180;58088;51.186;17.130;2022-07-10T05:17:41;100379.00;;;16.90
70533;BMP180;58088;51.186;17.130;2022-07-10T05:20:08;100380.40;;;16.80
70533;BMP180;58088;51.186;17.130;2022-07-10T05:22:35;100377.00;;;16.90
70533;BMP180;58088;51.186;17.130;2022-07-10T05:25:02;100372.00;;;16.92
70533;BMP180;58088;51.186;17.130;2022-07-10T05:27:28;100386.40;;;17.10
70533;BMP180;58088;51.186;17.130;2022-07-10T05:29:55;100383.20;;;17.10
70533;BMP180;58088;51.186;17.130;2022-07-10T05:32:21;100378.40;;;17.20
70533;BMP180;58088;51.186;17.130;2022-07-10T05:34:48;100374.80;;;17.20
70533;BMP180;58088;51.186;17.130;2022-07-10T05:37:15;100377.60;;;17.44
70533;BMP180;58088;51.186;17.130;2022-07-10T05:39:41;100378.60;;;18.36
70533;BMP180;58088;51.186;17.130;2022-07-10T05:42:07;100368.20;;;19.00
70533;BMP180;58088;51.186;17.130;2022-07-10T05:44:33;100369.00;;;19.54
70533;BMP180;58088;51.186;17.130;2022-07-10T05:46:59;100369.40;;;20.24
70533;BMP180;58088;51.186;17.130;2022-07-10T05:49:25;100370.80;;;20.74
70533;BMP180;58088;51.186;17.130;2022-07-10T05:51:52;100370.80;;;21.06
70533;BMP180;58088;51.186;17.130;2022-07-10T05:54:18;100369.00;;;21.00
70533;BMP180;58088;51.186;17.130;2022-07-10T05:56:44;100371.40;;;21.22
70533;BMP180;58088;51.186;17.130;2022-07-10T05:59:10;100378.80;;;21.50
70533;BMP180;58088;51.186;17.130;2022-07-10T06:01:37;100374.00;;;21.90
70533;BMP180;58088;51.186;17.130;2022-07-10T06:04:03;100371.20;;;22.22
70533;BMP180;58088;51.186;17.130;2022-07-10T06:06:29;100370.20;;;22.46
70533;BMP180;58088;51.186;17.130;2022-07-10T06:08:56;100387.40;;;22.50
70533;BMP180;58088;51.186;17.130;2022-07-10T06:11:22;100376.40;;;22.02
70533;BMP180;58088;51.186;17.130;2022-07-10T06:13:48;100377.00;;;21.34
70533;BMP180;58088;51.186;17.130;2022-07-10T06:16:14;100381.20;;;21.00
70533;BMP180;58088;51.186;17.130;2022-07-10T06:18:40;100382.40;;;20.56
70533;BMP180;58088;51.186;17.130;2022-07-10T06:21:06;100379.60;;;20.20
70533;BMP180;58088;51.186;17.130;2022-07-10T06:23:33;100382.40;;;19.96
70533;BMP180;58088;51.186;17.130;2022-07-10T06:25:59;100382.20;;;19.82
70533;BMP180;58088;51.186;17.130;2022-07-10T06:28:26;100387.20;;;19.80
70533;BMP180;58088;51.186;17.130;2022-07-10T06:30:52;100385.40;;;19.80
70533;BMP180;58088;51.186;17.130;2022-07-10T06:33:19;100386.40;;;19.70
70533;BMP180;58088;51.186;17.130;2022-07-10T06:35:45;100392.40;;;19.60
70533;BMP180;58088;51.186;17.130;2022-07-10T06:38:11;100383.60;;;19.50
70533;BMP180;58088;51.186;17.130;2022-07-10T06:40:38;100391.00;;;19.40
70533;BMP180;58088;51.186;17.130;2022-07-10T06:43:04;100389.60;;;19.40
70533;BMP180;58088;51.186;17.130;2022-07-10T06:45:31;100388.40;;;19.30
70533;BMP180;58088;51.186;17.130;2022-07-10T06:47:57;100382.40;;;19.20
70533;BMP180;58088;51.186;17.130;2022-07-10T06:50:29;100379.80;;;19.00
70533;BMP180;58088;51.186;17.130;2022-07-10T06:52:58;100378.80;;;18.80
70533;BMP180;58088;51.186;17.130;2022-07-10T06:55:31;100378.40;;;18.90
70533;BMP180;58088;51.186;17.130;2022-07-10T06:57:58;100379.00;;;18.90
70533;BMP180;58088;51.186;17.130;2022-07-10T07:00:24;100381.40;;;18.90
70533;BMP180;58088;51.186;17.130;2022-07-10T07:02:51;100378.40;;;19.02
70533;BMP180;58088;51.186;17.130;2022-07-10T07:05:18;100381.20;;;19.10
70533;BMP180;58088;51.186;17.130;2022-07-10T07:07:44;100380.40;;;19.10
70533;BMP180;58088;51.186;17.130;2022-07-10T07:10:11;100376.60;;;19.10
70533;BMP180;58088;51.186;17.130;2022-07-10T07:12:38;100380.80;;;19.00
70533;BMP180;58088;51.186;17.130;2022-07-10T07:15:06;100387.40;;;18.90
70533;BMP180;58088;51.186;17.130;2022-07-10T07:17:32;100384.20;;;18.80
70533;BMP180;58088;51.186;17.130;2022-07-10T07:20:12;100384.60;;;18.68
70533;BMP180;58088;51.186;17.130;2022-07-10T07:22:57;100386.80;;;18.46
70533;BMP180;58088;51.186;17.130;2022-07-10T07:25:37;100387.00;;;18.40
70533;BMP180;58088;51.186;17.130;2022-07-10T07:28:07;100395.00;;;18.30
70533;BMP180;58088;51.186;17.130;2022-07-10T07:30:33;100396.00;;;18.30
70533;BMP180;58088;51.186;17.130;2022-07-10T07:32:59;100388.20;;;18.20
70533;BMP180;58088;51.186;17.130;2022-07-10T07:35:25;100392.60;;;18.10
70533;BMP180;58088;51.186;17.130;2022-07-10T07:37:52;100390.00;;;18.00
70533;BMP180;58088;51.186;17.130;2022-07-10T07:40:21;100387.40;;;17.90
70533;BMP180;58088;51.186;17.130;2022-07-10T07:42:50;100382.40;;;17.90
70533;BMP180;58088;51.186;17.130;2022-07-10T07:45:17;100387.00;;;17.90
70533;BMP180;58088;51.186;17.130;2022-07-10T07:47:48;100385.20;;;17.90
70533;BMP180;58088;51.186;17.130;2022-07-10T07:50:18;100378.80;;;17.80
70533;BMP180;58088;51.186;17.130;2022-07-10T07:52:46;100379.00;;;17.84
70533;BMP180;58088;51.186;17.130;2022-07-10T07:55:15;100383.20;;;17.90
70533;BMP180;58088;51.186;17.130;2022-07-10T07:57:42;100382.00;;;18.00
70533;BMP180;58088;51.186;17.130;2022-07-10T08:00:11;100379.80;;;18.00
70533;BMP180;58088;51.186;17.130;2022-07-10T08:02:41;100373.40;;;18.00
70533;BMP180;58088;51.186;17.130;2022-07-10T08:05:08;100372.80;;;18.10
70533;BMP180;58088;51.186;17.130;2022-07-10T08:07:44;100372.60;;;18.20
70533;BMP180;58088;51.186;17.130;2022-07-10T08:10:17;100377.40;;;18.30
70533;BMP180;58088;51.186;17.130;2022-07-10T08:12:45;100377.00;;;18.64
70533;BMP180;58088;51.186;17.130;2022-07-10T08:15:15;100382.00;;;19.02
70533;BMP180;58088;51.186;17.130;2022-07-10T08:17:42;100377.00;;;19.50
70533;BMP180;58088;51.186;17.130;2022-07-10T08:20:12;100384.00;;;19.80
70533;BMP180;58088;51.186;17.130;2022-07-10T08:22:40;100377.00;;;19.70
70533;BMP180;58088;51.186;17.130;2022-07-10T08:25:07;100374.00;;;19.60
70533;BMP180;58088;51.186;17.130;2022-07-10T08:27:34;100378.60;;;19.60
70533;BMP180;58088;51.186;17.130;2022-07-10T08:30:00;100375.40;;;19.72
70533;BMP180;58088;51.186;17.130;2022-07-10T08:32:27;100371.40;;;20.00
70533;BMP180;58088;51.186;17.130;2022-07-10T08:34:54;100375.80;;;19.90
70533;BMP180;58088;51.186;17.130;2022-07-10T08:37:20;100377.40;;;19.90
70533;BMP180;58088;51.186;17.130;2022-07-10T08:39:47;100376.00;;;19.70
70533;BMP180;58088;51.186;17.130;2022-07-10T08:42:16;100387.20;;;19.58
70533;BMP180;58088;51.186;17.130;2022-07-10T08:44:43;100397.00;;;19.22
70533;BMP180;58088;51.186;17.130;2022-07-10T08:47:09;100403.20;;;18.76
70533;BMP180;58088;51.186;17.130;2022-07-10T08:49:46;100393.40;;;18.18
70533;BMP180;58088;51.186;17.130;2022-07-10T08:52:31;100396.00;;;17.80
70533;BMP180;58088;51.186;17.130;2022-07-10T08:54:59;100401.80;;;17.60
70533;BMP180;58088;51.186;17.130;2022-07-10T08:57:26;100396.60;;;17.50
70533;BMP180;58088;51.186;17.130;2022-07-10T08:59:52;100396.60;;;17.30
70533;BMP180;58088;51.186;17.130;2022-07-10T09:02:20;100403.40;;;17.30
70533;BMP180;58088;51.186;17.130;2022-07-10T09:04:46;100394.80;;;17.40
70533;BMP180;58088;51.186;17.130;2022-07-10T09:07:13;100395.20;;;17.50
70533;BMP180;58088;51.186;17.130;2022-07-10T09:10:05;100391.40;;;17.60
70533;BMP180;58088;51.186;17.130;2022-07-10T09:15:18;100391.40;;;18.00
70533;BMP180;58088;51.186;17.130;2022-07-10T09:23:35;100394.20;;;18.32
70533;BMP180;58088;51.186;17.130;2022-07-10T09:26:04;100393.20;;;18.60
70533;BMP180;58088;51.186;17.130;2022-07-10T09:28:32;100374.00;;;18.90
70533;BMP180;58088;51.186;17.130;2022-07-10T09:31:00;100384.40;;;19.00
70533;BMP180;58088;51.186;17.130;2022-07-10T09:33:30;100390.00;;;18.90
70533;BMP180;58088;51.186;17.130;2022-07-10T09:36:06;100383.20;;;18.80
70533;BMP180;58088;51.186;17.130;2022-07-10T09:46:25;100391.20;;;18.60
70533;BMP180;58088;51.186;17.130;2022-07-10T09:49:10;100406.00;;;18.30
70533;BMP180;58088;51.186;17.130;2022-07-10T09:51:41;100401.80;;;18.10
70533;BMP180;58088;51.186;17.130;2022-07-10T09:54:09;100406.00;;;17.90
70533;BMP180;58088;51.186;17.130;2022-07-10T09:56:47;100408.20;;;17.66
70533;BMP180;58088;51.186;17.130;2022-07-10T09:59:16;100411.00;;;17.50
70533;BMP180;58088;51.186;17.130;2022-07-10T10:01:51;100407.80;;;17.48
70533;BMP180;58088;51.186;17.130;2022-07-10T10:04:20;100410.00;;;17.50
70533;BMP180;58088;51.186;17.130;2022-07-10T10:06:56;100404.80;;;17.60
70533;BMP180;58088;51.186;17.130;2022-07-10T10:09:38;100404.00;;;17.80
70533;BMP180;58088;51.186;17.130;2022-07-10T10:12:23;100399.60;;;17.90
70533;BMP180;58088;51.186;17.130;2022-07-10T10:14:54;100397.60;;;18.00
70533;BMP180;58088;51.186;17.130;2022-07-10T10:17:24;100395.80;;;18.20
70533;BMP180;58088;51.186;17.130;2022-07-10T10:19:54;100396.60;;;18.48
70533;BMP180;58088;51.186;17.130;2022-07-10T10:22:40;100395.60;;;18.74
70533;BMP180;58088;51.186;17.130;2022-07-10T10:25:07;100389.20;;;18.90
70533;BMP180;58088;51.186;17.130;2022-07-10T10:27:37;100381.00;;;19.10
70533;BMP180;58088;51.186;17.130;2022-07-10T10:30:05;100389.20;;;19.26
70533;BMP180;58088;51.186;17.130;2022-07-10T10:32:31;100381.00;;;19.40
70533;BMP180;58088;51.186;17.130;2022-07-10T10:34:58;100375.00;;;19.60
70533;BMP180;58088;51.186;17.130;2022-07-10T10:37:39;100380.60;;;19.70
70533;BMP180;58088;51.186;17.130;2022-07-10T10:40:32;100382.80;;;19.70
70533;BMP180;58088;51.186;17.130;2022-07-10T10:43:23;100380.20;;;19.76
70533;BMP180;58088;51.186;17.130;2022-07-10T10:45:52;100385.20;;;19.80
70533;BMP180;58088;51.186;17.130;2022-07-10T10:48:19;100384.60;;;19.80
70533;BMP180;58088;51.186;17.130;2022-07-10T10:50:53;100377.00;;;19.88
70533;BMP180;58088;51.186;17.130;2022-07-10T10:53:29;100374.80;;;20.00
70533;BMP180;58088;51.186;17.130;2022-07-10T10:58:46;100362.40;;;20.40
70533;BMP180;58088;51.186;17.130;2022-07-10T11:06:41;100367.60;;;20.30
70533;BMP180;58088;51.186;17.130;2022-07-10T11:09:26;100371.80;;;20.20
70533;BMP180;58088;51.186;17.130;2022-07-10T11:12:06;100366.20;;;20.30
70533;BMP180;58088;51.186;17.130;2022-07-10T11:14:44;100361.00;;;20.34
70533;BMP180;58088;51.186;17.130;2022-07-10T11:17:11;100362.00;;;20.40
70533;BMP180;58088;51.186;17.130;2022-07-10T11:19:37;100367.00;;;20.40
70533;BMP180;58088;51.186;17.130;2022-07-10T11:25:15;100356.20;;;20.30
70533;BMP180;58088;51.186;17.130;2022-07-10T11:28:08;100357.40;;;20.50
70533;BMP180;58088;51.186;17.130;2022-07-10T11:30:53;100364.00;;;20.66
70533;BMP180;58088;51.186;17.130;2022-07-10T11:33:22;100359.60;;;20.80
70533;BMP180;58088;51.186;17.130;2022-07-10T11:35:51;100367.40;;;20.86
70533;BMP180;58088;51.186;17.130;2022-07-10T11:38:26;100353.00;;;21.10
70533;BMP180;58088;51.186;17.130;2022-07-10T11:40:52;100360.20;;;21.20
70533;BMP180;58088;51.186;17.130;2022-07-10T11:43:21;100359.60;;;21.20
70533;BMP180;58088;51.186;17.130;2022-07-10T11:45:50;100353.40;;;21.20
70533;BMP180;58088;51.186;17.130;2022-07-10T11:48:21;100353.60;;;21.10
70533;BMP180;58088;51.186;17.130;2022-07-10T11:50:49;100345.00;;;21.10
70533;BMP180;58088;51.186;17.130;2022-07-10T11:53:26;100350.60;;;21.10
70533;BMP180;58088;51.186;17.130;2022-07-10T11:55:53;100349.80;;;21.10
70533;BMP180;58088;51.186;17.130;2022-07-10T11:58:20;100355.80;;;21.10
70533;BMP180;58088;51.186;17.130;2022-07-10T12:01:04;100360.80;;;21.00
70533;BMP180;58088;51.186;17.130;2022-07-10T12:03:34;100360.40;;;21.10
70533;BMP180;58088;51.186;17.130;2022-07-10T12:06:06;100356.40;;;21.20
70533;BMP180;58088;51.186;17.130;2022-07-10T12:08:46;100361.00;;;21.10
70533;BMP180;58088;51.186;17.130;2022-07-10T12:11:15;100364.60;;;20.88
70533;BMP180;58088;51.186;17.130;2022-07-10T12:13:43;100359.80;;;20.60
70533;BMP180;58088;51.186;17.130;2022-07-10T12:16:10;100362.60;;;20.36
70533;BMP180;58088;51.186;17.130;2022-07-10T12:18:36;100366.60;;;20.26
70533;BMP180;58088;51.186;17.130;2022-07-10T12:21:04;100356.80;;;20.48
70533;BMP180;58088;51.186;17.130;2022-07-10T12:23:30;100359.40;;;20.60
70533;BMP180;58088;51.186;17.130;2022-07-10T12:25:57;100369.40;;;20.56
70533;BMP180;58088;51.186;17.130;2022-07-10T12:28:23;100382.00;;;20.40
70533;BMP180;58088;51.186;17.130;2022-07-10T12:30:50;100399.40;;;20.12
70533;BMP180;58088;51.186;17.130;2022-07-10T12:33:23;100410.40;;;19.90
70533;BMP180;58088;51.186;17.130;2022-07-10T12:35:57;100407.20;;;19.70
70533;BMP180;58088;51.186;17.130;2022-07-10T12:38:28;100400.80;;;19.70
70533;BMP180;58088;51.186;17.130;2022-07-10T12:41:10;100398.60;;;19.60
70533;BMP180;58088;51.186;17.130;2022-07-10T12:43:38;100401.00;;;19.60
70533;BMP180;58088;51.186;17.130;2022-07-10T12:46:19;100398.60;;;19.60
70533;BMP180;58088;51.186;17.130;2022-07-10T12:49:06;100399.80;;;19.70
70533;BMP180;58088;51.186;17.130;2022-07-10T12:51:34;100400.00;;;19.70
70533;BMP180;58088;51.186;17.130;2022-07-10T12:54:07;100405.60;;;19.70
70533;BMP180;58088;51.186;17.130;2022-07-10T12:56:37;100402.00;;;19.70
70533;BMP180;58088;51.186;17.130;2022-07-10T12:59:13;100404.80;;;19.70
70533;BMP180;58088;51.186;17.130;2022-07-10T13:01:44;100399.40;;;19.70
70533;BMP180;58088;51.186;17.130;2022-07-10T13:04:11;100389.60;;;19.60
70533;BMP180;58088;51.186;17.130;2022-07-10T13:06:39;100397.40;;;19.60
70533;BMP180;58088;51.186;17.130;2022-07-10T13:09:25;100390.80;;;19.60
70533;BMP180;58088;51.186;17.130;2022-07-10T13:11:53;100394.40;;;19.70
70533;BMP180;58088;51.186;17.130;2022-07-10T13:14:21;100397.20;;;19.70
70533;BMP180;58088;51.186;17.130;2022-07-10T13:16:47;100390.20;;;19.74
70533;BMP180;58088;51.186;17.130;2022-07-10T13:19:13;100392.20;;;19.80
70533;BMP180;58088;51.186;17.130;2022-07-10T13:21:39;100395.00;;;19.80
70533;BMP180;58088;51.186;17.130;2022-07-10T13:24:06;100388.00;;;19.80
70533;BMP180;58088;51.186;17.130;2022-07-10T13:26:32;100389.60;;;19.80
70533;BMP180;58088;51.186;17.130;2022-07-10T13:28:58;100391.00;;;19.88
70533;BMP180;58088;51.186;17.130;2022-07-10T13:31:27;100386.80;;;19.92
70533;BMP180;58088;51.186;17.130;2022-07-10T13:33:53;100378.80;;;20.10
70533;BMP180;58088;51.186;17.130;2022-07-10T13:36:20;100379.40;;;20.20
70533;BMP180;58088;51.186;17.130;2022-07-10T13:38:46;100378.80;;;20.30
70533;BMP180;58088;51.186;17.130;2022-07-10T13:41:16;100379.60;;;20.40
70533;BMP180;58088;51.186;17.130;2022-07-10T13:43:42;100376.00;;;20.50
70533;BMP180;58088;51.186;17.130;2022-07-10T13:46:08;100376.00;;;20.70
70533;BMP180;58088;51.186;17.130;2022-07-10T13:48:34;100369.20;;;20.60
70533;BMP180;58088;51.186;17.130;2022-07-10T13:51:00;100369.60;;;20.60
70533;BMP180;58088;51.186;17.130;2022-07-10T13:53:27;100356.60;;;20.68
70533;BMP180;58088;51.186;17.130;2022-07-10T13:55:53;100362.80;;;20.70
70533;BMP180;58088;51.186;17.130;2022-07-10T13:58:19;100360.60;;;20.70
70533;BMP180;58088;51.186;17.130;2022-07-10T14:00:46;100361.20;;;20.72
70533;BMP180;58088;51.186;17.130;2022-07-10T14:03:12;100359.60;;;20.80
70533;BMP180;58088;51.186;17.130;2022-07-10T14:05:38;100350.20;;;21.00
70533;BMP180;58088;51.186;17.130;2022-07-10T14:08:04;100347.60;;;21.10
70533;BMP180;58088;51.186;17.130;2022-07-10T14:10:31;100340.20;;;21.20
70533;BMP180;58088;51.186;17.130;2022-07-10T14:12:57;100339.40;;;21.20
70533;BMP180;58088;51.186;17.130;2022-07-10T14:15:24;100345.60;;;21.04
70533;BMP180;58088;51.186;17.130;2022-07-10T14:17:51;100349.00;;;21.00
70533;BMP180;58088;51.186;17.130;2022-07-10T14:20:17;100354.00;;;20.90